메인 페이지
METAR-TAF:

METAR-TAF

공항 :

St. Petersburg-Clearwater International Airport

세인트피터즈버그 클리어워터, 플로리다, 미국

위도: 27-54-44N, 경도: 082-41-08W, 고도: 3m

현재 날씨관측

예보는 28분 전, 17:53시(UTC)에 발표되었습니다.
북북서7kt서북서풍과 풍을 오가는
온도 29°C
습도 33%
기압 1014 hPa
시정: 16.1km
맑음

METAR: KPIE 041753Z 34007KT 300V010 10SM CLR 29/11 A2994 RMK AO2 SLP137 T02890111 10289 20206 58020

시각: 14:21 (18:21 UTC)

예보

예보는 1 시간 1분 전, 17:20시(UTC)에 발표되었습니다.
예보 대상 시간: 04일 18시부터 05일 18시까지 (UTC)
북동7kt
시정: 10km
고도 4000ft 상공 구름 조금
고도 25000ft 상공 구름 보통
04일 1900시부터 (UTC)
서북서8kt
시정: 10km
고도 4000ft 상공 구름 조금
고도 25000ft 상공 구름 보통
05일 0200시부터 (UTC)
여러 방향의 바람 4kt
시정: 10km
고도 2500ft 상공 구름 조금
고도 25000ft 상공 구름 많음
05일 1600시부터 (UTC)
북북동7kt
시정: 10km
고도 5000ft 상공 구름 많음

TAF: KPIE 041720Z 0418/0518 05007KT P6SM FEW040 SCT250 FM041900 29008KT P6SM FEW040 SCT250 FM050200 VRB04KT P6SM FEW025 BKN250 FM051600 03007KT P6SM BKN050

4,000개 이상의 공항 관측 자료 및 예보 (METAR 및 TAF 보고).

지도상에서 검색 가능한 기상관측소가 노란 점과 빨간 점으로 표시되어 있습니다.

기상관측소 명을 보려면 표시 위로 마우스를 이동하세요.

날씨 관측과 예보를 보려면 클릭하세요.

지도 변경 : 확대하려면 엑스 표시가 있는 녹색 버튼, 축소하려면 빼기 표시가 있는 녹색 버튼, 다음 페이지의 지도를 보려면 녹색 화살표를 클릭하세요.


METAR-TAF: